Terminal Aerodrome Forecast
Issued by NWS Louisville, KY

Home | Current Version | Previous Version | Text Only | Print | Product List | Glossary On
Versions: 1 2 3 4 5 6 7 8 9 10 11 12 13
000
FTUS43 KLMK 171700
TAFBWG
TAF
KBWG 171721Z 1718/1818 VRB03KT P6SM SCT020
     FM172200 VRB03KT P6SM SCT250
     FM180900 00000KT 4SM BR SCT008
      TEMPO 1810/1813 1SM BR BKN002
     FM181500 07005KT P6SM SCT035=

USA.gov is the U.S. government's official web portal to all federal, state and local government web resources and services.